createdAt,value
2018-07-11T00:00:41.772Z,12.83
2018-07-11T00:01:41.790Z,12.89
2018-07-11T00:02:41.642Z,12.85
2018-07-11T00:03:41.625Z,12.87
2018-07-11T00:04:41.600Z,12.89
2018-07-11T00:05:41.510Z,12.93
2018-07-11T00:06:41.547Z,12.90
2018-07-11T00:07:41.440Z,12.96
2018-07-11T00:08:41.396Z,13.01
2018-07-11T00:09:41.354Z,12.93
2018-07-11T00:10:41.323Z,12.96
2018-07-11T00:11:41.300Z,12.96
2018-07-11T00:12:41.248Z,12.95
2018-07-11T00:13:41.212Z,12.96
2018-07-11T00:14:41.186Z,12.97
2018-07-11T00:15:41.152Z,13.01
2018-07-11T00:16:41.110Z,13.04
2018-07-11T00:17:41.085Z,12.97
2018-07-11T00:18:41.035Z,13.03
2018-07-11T00:19:40.995Z,13.00
2018-07-11T00:20:40.959Z,12.95
2018-07-11T00:21:40.923Z,13.04
2018-07-11T00:22:40.890Z,13.00
2018-07-11T00:23:40.850Z,12.97
2018-07-11T00:24:40.816Z,13.00
2018-07-11T00:25:40.778Z,12.97
2018-07-11T00:26:40.743Z,13.00
2018-07-11T00:27:40.698Z,12.97
2018-07-11T00:28:40.675Z,13.00
2018-07-11T00:29:40.626Z,12.96
2018-07-11T00:30:40.600Z,13.07
2018-07-11T00:31:40.582Z,13.03
2018-07-11T00:32:40.519Z,13.08
2018-07-11T00:33:40.492Z,13.10
2018-07-11T00:34:40.452Z,13.11
2018-07-11T00:35:40.411Z,13.15
2018-07-11T00:36:40.379Z,13.11
2018-07-11T00:37:40.340Z,13.10
2018-07-11T00:38:40.303Z,13.10
2018-07-11T00:39:40.309Z,13.12
2018-07-11T00:40:40.296Z,13.12
2018-07-11T00:41:40.250Z,13.12
2018-07-11T00:42:40.271Z,13.14
2018-07-11T00:43:40.198Z,13.15
2018-07-11T00:44:40.166Z,13.15
2018-07-11T00:45:40.094Z,13.12
2018-07-11T00:46:40.098Z,13.14
2018-07-11T00:47:39.988Z,13.08
2018-07-11T00:48:39.939Z,13.15
2018-07-11T00:49:39.919Z,13.22
2018-07-11T00:50:39.872Z,13.08
2018-07-11T00:51:39.833Z,13.04
2018-07-11T00:52:39.795Z,13.11
2018-07-11T00:53:39.758Z,13.15
2018-07-11T00:54:39.727Z,13.07
2018-07-11T00:55:39.690Z,13.15
2018-07-11T00:56:39.649Z,13.10
2018-07-11T00:57:39.611Z,13.11
2018-07-11T00:58:39.590Z,13.11
2018-07-11T00:59:39.545Z,13.22
2018-07-11T01:00:39.509Z,13.23
2018-07-11T01:01:39.471Z,13.10
2018-07-11T01:02:39.435Z,13.05
2018-07-11T01:03:39.404Z,13.12
2018-07-11T01:04:39.375Z,13.08
2018-07-11T01:05:39.327Z,13.10
2018-07-11T01:06:39.841Z,13.10
2018-07-11T01:07:39.269Z,13.04
2018-07-11T01:08:39.223Z,13.10
2018-07-11T01:09:39.185Z,13.05
2018-07-11T01:10:39.144Z,13.11
2018-07-11T01:11:39.117Z,13.17
2018-07-11T01:12:39.076Z,13.14
2018-07-11T01:13:39.047Z,13.10
2018-07-11T01:14:39.003Z,13.14
2018-07-11T01:15:38.962Z,13.22
2018-07-11T01:16:38.927Z,13.14
2018-07-11T01:17:38.896Z,13.08
2018-07-11T01:18:38.860Z,13.05
2018-07-11T01:19:38.817Z,13.19
2018-07-11T01:20:38.782Z,13.08
2018-07-11T01:21:38.747Z,13.12
2018-07-11T01:22:38.776Z,13.05
2018-07-11T01:23:38.710Z,13.15
2018-07-11T01:24:38.655Z,13.10
2018-07-11T01:25:38.610Z,13.15
2018-07-11T01:26:38.578Z,13.11
2018-07-11T01:27:38.534Z,13.08
2018-07-11T01:28:38.491Z,13.19
2018-07-11T01:29:38.526Z,13.22
2018-07-11T01:30:38.435Z,13.19
2018-07-11T01:31:38.388Z,13.22
2018-07-11T01:32:38.369Z,13.20
2018-07-11T01:33:38.314Z,13.20
2018-07-11T01:34:38.277Z,13.17
2018-07-11T01:35:38.247Z,13.19
2018-07-11T01:36:38.223Z,13.15
2018-07-11T01:37:38.172Z,13.15
2018-07-11T01:38:38.156Z,13.20
2018-07-11T01:39:38.103Z,13.11
2018-07-11T01:40:38.072Z,13.26
2018-07-11T01:41:38.026Z,13.19
2018-07-11T01:42:37.991Z,13.17
2018-07-11T01:43:37.956Z,13.23
2018-07-11T01:44:37.928Z,13.12
2018-07-11T01:45:37.886Z,13.29
2018-07-11T01:46:37.857Z,13.15
2018-07-11T01:47:37.822Z,13.15
2018-07-11T01:48:37.782Z,13.17
2018-07-11T01:49:37.742Z,13.23
2018-07-11T01:50:37.711Z,13.15
2018-07-11T01:51:37.674Z,13.22
2018-07-11T01:52:37.637Z,13.15
2018-07-11T01:53:37.611Z,13.19
2018-07-11T01:54:37.629Z,13.14
2018-07-11T01:55:37.539Z,13.14
2018-07-11T01:56:37.491Z,13.19
2018-07-11T01:57:37.457Z,13.25
2018-07-11T01:58:37.419Z,13.29
2018-07-11T01:59:37.390Z,13.15
2018-07-11T02:00:37.340Z,13.17
2018-07-11T02:01:37.320Z,13.11
2018-07-11T02:02:37.276Z,13.22
2018-07-11T02:03:37.269Z,13.12
2018-07-11T02:04:37.200Z,13.17
2018-07-11T02:05:37.163Z,13.25
2018-07-11T02:06:37.133Z,13.10
2018-07-11T02:07:37.098Z,13.17
2018-07-11T02:08:37.057Z,13.17
2018-07-11T02:09:37.029Z,13.20
2018-07-11T02:10:36.987Z,13.12
2018-07-11T02:11:36.957Z,13.10
2018-07-11T02:12:36.910Z,13.07
2018-07-11T02:13:36.879Z,13.08
2018-07-11T02:14:36.858Z,13.17
2018-07-11T02:15:36.812Z,13.15
2018-07-11T02:16:36.766Z,13.23
2018-07-11T02:17:36.740Z,13.12
2018-07-11T02:18:36.716Z,13.08
2018-07-11T02:19:36.666Z,13.04
2018-07-11T02:20:36.637Z,13.11
2018-07-11T02:21:36.587Z,13.11
2018-07-11T02:22:36.563Z,13.07
2018-07-11T02:23:36.518Z,13.19
2018-07-11T02:24:36.482Z,13.26
2018-07-11T02:25:36.451Z,13.14
2018-07-11T02:26:36.412Z,13.19
2018-07-11T02:27:36.416Z,13.15
2018-07-11T02:28:36.338Z,13.22
2018-07-11T02:29:36.308Z,13.11
2018-07-11T02:30:36.286Z,13.08
2018-07-11T02:31:36.234Z,13.11
2018-07-11T02:32:36.195Z,13.25
2018-07-11T02:33:36.166Z,13.08
2018-07-11T02:34:36.140Z,13.20
2018-07-11T02:35:36.099Z,13.17
2018-07-11T02:36:36.046Z,13.08
2018-07-11T02:37:36.027Z,13.20
2018-07-11T02:38:35.992Z,13.14
2018-07-11T02:39:35.978Z,13.08
2018-07-11T02:40:35.902Z,13.20
2018-07-11T02:41:35.872Z,13.15
2018-07-11T02:42:35.832Z,13.22
2018-07-11T02:43:35.800Z,13.10
2018-07-11T02:44:35.769Z,13.20
2018-07-11T02:45:35.738Z,13.10
2018-07-11T02:46:35.691Z,13.10
2018-07-11T02:47:35.653Z,13.08
2018-07-11T02:48:35.617Z,13.15
2018-07-11T02:49:35.583Z,13.12
2018-07-11T02:50:35.544Z,13.19
2018-07-11T02:51:35.552Z,13.14
2018-07-11T02:52:35.476Z,13.12
2018-07-11T02:53:35.445Z,13.11
2018-07-11T02:54:35.406Z,13.19
2018-07-11T02:55:35.368Z,13.25
2018-07-11T02:56:35.331Z,13.14
2018-07-11T02:57:35.300Z,13.12
2018-07-11T02:58:35.274Z,13.25
2018-07-11T02:59:35.230Z,13.26
2018-07-11T03:00:35.193Z,13.12
2018-07-11T03:01:35.157Z,13.22
2018-07-11T03:02:35.111Z,13.15
2018-07-11T03:03:35.092Z,13.11
2018-07-11T03:04:35.068Z,13.20
2018-07-11T03:05:35.022Z,13.12
2018-07-11T03:06:34.970Z,13.30
2018-07-11T03:07:34.975Z,13.17
2018-07-11T03:08:34.983Z,13.17
2018-07-11T03:09:34.917Z,13.19
2018-07-11T03:10:34.866Z,13.29
2018-07-11T03:11:34.872Z,13.26
2018-07-11T03:12:34.827Z,13.14
2018-07-11T03:13:34.798Z,13.22
2018-07-11T03:14:34.864Z,13.26
2018-07-11T03:15:34.730Z,13.15
2018-07-11T03:16:34.666Z,13.22
2018-07-11T03:17:34.599Z,13.26
2018-07-11T03:18:34.650Z,13.26
2018-07-11T03:19:34.589Z,13.23
2018-07-11T03:20:34.558Z,13.28
2018-07-11T03:21:34.432Z,13.29
2018-07-11T03:22:34.411Z,13.32
2018-07-11T03:23:34.356Z,13.36
2018-07-11T03:24:34.357Z,13.38
2018-07-11T03:25:34.293Z,13.36
2018-07-11T03:26:34.260Z,13.36
2018-07-11T03:27:34.227Z,13.38
2018-07-11T03:28:34.225Z,13.36
2018-07-11T03:29:34.152Z,13.36
2018-07-11T03:30:34.110Z,13.36
2018-07-11T03:31:34.096Z,13.39
2018-07-11T03:32:34.059Z,13.26
2018-07-11T03:33:34.013Z,13.39
2018-07-11T03:34:34.134Z,13.42
2018-07-11T03:35:33.937Z,13.30
2018-07-11T03:36:33.898Z,13.28
2018-07-11T03:37:33.854Z,13.42
2018-07-11T03:38:33.833Z,13.36
2018-07-11T03:39:33.878Z,13.29
2018-07-11T03:40:33.753Z,13.33
2018-07-11T03:41:33.925Z,13.30
2018-07-11T03:42:33.699Z,13.29
2018-07-11T03:43:33.649Z,13.30
2018-07-11T03:44:33.611Z,13.28
2018-07-11T03:45:33.637Z,13.30
2018-07-11T03:46:33.595Z,13.36
2018-07-11T03:47:33.505Z,13.30
2018-07-11T03:48:33.469Z,13.32
2018-07-11T03:49:33.424Z,13.33
2018-07-11T03:50:33.386Z,13.32
2018-07-11T03:51:33.357Z,13.42
2018-07-11T03:52:33.325Z,13.39
2018-07-11T03:53:33.295Z,13.45
2018-07-11T03:54:33.252Z,13.39
2018-07-11T03:55:33.213Z,13.39
2018-07-11T03:56:33.184Z,13.41
2018-07-11T03:57:33.137Z,13.45
2018-07-11T03:58:33.097Z,13.45
2018-07-11T03:59:33.120Z,13.45
2018-07-11T04:00:33.037Z,13.44
2018-07-11T04:01:32.992Z,13.49
2018-07-11T04:02:32.958Z,13.51
2018-07-11T04:03:32.923Z,13.48
2018-07-11T04:04:32.889Z,13.48
2018-07-11T04:05:32.850Z,13.49
2018-07-11T04:06:32.828Z,13.55
2018-07-11T04:07:32.774Z,13.51
2018-07-11T04:08:32.735Z,13.60
2018-07-11T04:09:32.784Z,13.55
2018-07-11T04:10:32.686Z,13.60
2018-07-11T04:11:32.645Z,13.67
2018-07-11T04:12:32.594Z,13.51
2018-07-11T04:13:32.578Z,13.63
2018-07-11T04:14:32.557Z,13.60
2018-07-11T04:15:32.497Z,13.64
2018-07-11T04:16:32.454Z,13.60
2018-07-11T04:17:32.431Z,13.66
2018-07-11T04:18:32.394Z,13.69
2018-07-11T04:19:32.359Z,13.73
2018-07-11T04:20:32.328Z,13.71
2018-07-11T04:21:32.275Z,13.73
2018-07-11T04:22:32.248Z,13.82
2018-07-11T04:23:32.210Z,13.71
2018-07-11T04:24:32.166Z,13.77
2018-07-11T04:25:32.125Z,13.82
2018-07-11T04:26:32.114Z,13.81
2018-07-11T04:27:32.065Z,13.77
2018-07-11T04:28:32.028Z,13.91
2018-07-11T04:29:32.028Z,13.91
2018-07-11T04:30:31.955Z,13.88
2018-07-11T04:31:31.954Z,13.99
2018-07-11T04:32:31.890Z,14.04
2018-07-11T04:33:31.978Z,14.12
2018-07-11T04:34:31.875Z,14.22
2018-07-11T04:35:31.790Z,14.25
2018-07-11T04:36:31.743Z,14.25
2018-07-11T04:37:31.713Z,14.17
2018-07-11T04:38:31.669Z,14.25
2018-07-11T04:39:31.631Z,14.20
2018-07-11T04:40:31.599Z,14.25
2018-07-11T04:41:31.564Z,14.28
2018-07-11T04:42:31.571Z,14.39
2018-07-11T04:43:31.494Z,14.40
2018-07-11T04:44:31.527Z,14.40
2018-07-11T04:45:31.417Z,14.51
2018-07-11T04:46:31.446Z,14.47
2018-07-11T04:47:31.348Z,14.55
2018-07-11T04:48:31.315Z,14.57
2018-07-11T04:49:31.321Z,14.61
2018-07-11T04:50:31.246Z,14.62
2018-07-11T04:51:31.207Z,14.57
2018-07-11T04:52:31.175Z,14.61
2018-07-11T04:53:31.134Z,14.75
2018-07-11T04:54:31.103Z,14.69
2018-07-11T04:55:31.075Z,14.81
2018-07-11T04:56:31.034Z,14.72
2018-07-11T04:57:31.008Z,14.80
2018-07-11T04:58:31.174Z,14.92
2018-07-11T04:59:30.932Z,14.81
2018-07-11T05:00:30.927Z,14.94
2018-07-11T05:01:30.861Z,14.91
2018-07-11T05:02:30.813Z,14.95
2018-07-11T05:03:30.790Z,14.94
2018-07-11T05:04:30.758Z,14.91
2018-07-11T05:05:30.719Z,14.89
2018-07-11T05:06:30.688Z,14.91
2018-07-11T05:07:30.643Z,14.96
2018-07-11T05:08:30.616Z,15.01
2018-07-11T05:09:30.569Z,15.02
2018-07-11T05:10:30.540Z,15.02
2018-07-11T05:11:30.510Z,15.01
2018-07-11T05:12:30.473Z,15.14
2018-07-11T05:13:30.476Z,15.14
2018-07-11T05:14:30.421Z,15.11
2018-07-11T05:15:30.360Z,15.16
2018-07-11T05:16:30.335Z,15.13
2018-07-11T05:17:30.308Z,15.14
2018-07-11T05:18:30.264Z,15.16
2018-07-11T05:19:30.218Z,15.07
2018-07-11T05:20:30.196Z,15.11
2018-07-11T05:21:30.147Z,15.10
2018-07-11T05:22:30.122Z,15.21
2018-07-11T05:23:30.083Z,15.14
2018-07-11T05:24:30.058Z,15.13
2018-07-11T05:25:30.016Z,15.11
2018-07-11T05:26:29.977Z,15.11
2018-07-11T05:27:29.936Z,15.16
2018-07-11T05:28:29.909Z,15.17
2018-07-11T05:29:29.877Z,15.28
2018-07-11T05:30:29.847Z,15.28
2018-07-11T05:31:29.819Z,15.27
2018-07-11T05:32:29.768Z,15.36
2018-07-11T05:33:29.767Z,15.38
2018-07-11T05:34:29.698Z,15.44
2018-07-11T05:35:29.666Z,15.44
2018-07-11T05:36:29.709Z,15.44
2018-07-11T05:37:29.593Z,15.47
2018-07-11T05:38:29.560Z,15.53
2018-07-11T05:39:29.550Z,15.47
2018-07-11T05:40:29.499Z,15.36
2018-07-11T05:41:29.466Z,15.38
2018-07-11T05:42:29.487Z,15.38
2018-07-11T05:43:29.386Z,15.36
2018-07-11T05:44:29.363Z,15.28
2018-07-11T05:45:29.321Z,15.36
2018-07-11T05:46:29.307Z,15.38
2018-07-11T05:47:29.254Z,15.47
2018-07-11T05:48:29.220Z,15.44
2018-07-11T05:49:29.189Z,15.49
2018-07-11T05:50:29.162Z,15.64
2018-07-11T05:51:29.116Z,15.53
2018-07-11T05:52:29.079Z,15.62
2018-07-11T05:53:29.045Z,15.57
2018-07-11T05:54:29.026Z,15.72
2018-07-11T05:55:28.991Z,15.68
2018-07-11T05:56:28.945Z,15.65
2018-07-11T05:57:28.906Z,15.72
2018-07-11T05:58:28.870Z,15.84
2018-07-11T05:59:28.875Z,15.84
2018-07-11T06:00:28.823Z,15.90
2018-07-11T06:01:28.779Z,15.86
2018-07-11T06:02:28.740Z,15.93
2018-07-11T06:03:28.699Z,15.93
2018-07-11T06:04:28.666Z,15.97
2018-07-11T06:05:28.719Z,15.96
2018-07-11T06:06:28.599Z,16.05
2018-07-11T06:07:28.562Z,16.09
2018-07-11T06:08:28.544Z,16.23
2018-07-11T06:09:28.487Z,16.21
2018-07-11T06:10:28.465Z,16.24
2018-07-11T06:11:28.433Z,16.17
2018-07-11T06:12:28.390Z,16.20
2018-07-11T06:13:28.441Z,16.30
2018-07-11T06:14:28.330Z,16.33
2018-07-11T06:15:28.300Z,16.34
2018-07-11T06:16:28.352Z,16.23
2018-07-11T06:17:28.225Z,16.31
2018-07-11T06:18:28.180Z,16.42
2018-07-11T06:19:28.157Z,16.35
2018-07-11T06:20:28.117Z,16.39
2018-07-11T06:21:28.100Z,16.31
2018-07-11T06:22:28.051Z,16.25
2018-07-11T06:23:28.023Z,16.39
2018-07-11T06:24:28.003Z,16.38
2018-07-11T06:25:27.970Z,16.28
2018-07-11T06:26:27.918Z,16.35
2018-07-11T06:27:27.883Z,16.46
2018-07-11T06:28:27.866Z,16.42
2018-07-11T06:29:27.829Z,16.56
2018-07-11T06:30:27.783Z,16.46
2018-07-11T06:31:27.747Z,16.45
2018-07-11T06:32:27.720Z,16.45
2018-07-11T06:33:27.730Z,16.53
2018-07-11T06:34:27.665Z,16.41
2018-07-11T06:35:27.643Z,16.43
2018-07-11T06:36:27.660Z,16.53
2018-07-11T06:37:27.562Z,16.57
2018-07-11T06:38:27.522Z,16.52
2018-07-11T06:39:27.568Z,16.50
2018-07-11T06:40:27.459Z,16.49
2018-07-11T06:41:27.418Z,16.52
2018-07-11T06:42:27.395Z,16.56
2018-07-11T06:43:27.398Z,16.53
2018-07-11T06:44:27.378Z,16.57
2018-07-11T06:45:27.294Z,16.53
2018-07-11T06:46:27.307Z,16.46
2018-07-11T06:47:27.234Z,16.45
2018-07-11T06:48:27.197Z,16.43
2018-07-11T06:49:27.151Z,16.39
2018-07-11T06:50:27.196Z,16.34
2018-07-11T06:51:27.088Z,16.41
2018-07-11T06:52:27.066Z,16.38
2018-07-11T06:53:27.047Z,16.45
2018-07-11T06:54:27.016Z,16.42
2018-07-11T06:55:26.970Z,16.52
2018-07-11T06:56:26.972Z,16.49
2018-07-11T06:57:26.948Z,16.58
2018-07-11T06:58:26.864Z,16.50
2018-07-11T06:59:26.886Z,16.45
2018-07-11T07:00:26.806Z,16.56
2018-07-11T07:01:26.757Z,16.60
2018-07-11T07:02:26.729Z,16.58
2018-07-11T07:03:26.735Z,16.63
2018-07-11T07:04:26.649Z,16.81
2018-07-11T07:05:26.888Z,16.78
2018-07-11T07:06:26.579Z,16.71
2018-07-11T07:07:26.547Z,16.63
2018-07-11T07:08:26.516Z,16.66
2018-07-11T07:09:26.487Z,16.61
2018-07-11T07:10:26.478Z,16.70
2018-07-11T07:11:26.421Z,16.79
2018-07-11T07:12:26.445Z,16.81
2018-07-11T07:13:26.469Z,16.81
2018-07-11T07:14:26.351Z,16.89
2018-07-11T07:15:26.368Z,16.96
2018-07-11T07:16:26.283Z,16.86
2018-07-11T07:17:26.345Z,16.75
2018-07-11T07:18:26.202Z,16.73
2018-07-11T07:19:26.172Z,16.78
2018-07-11T07:20:26.149Z,16.73
2018-07-11T07:21:26.098Z,16.66
2018-07-11T07:22:26.123Z,16.61
2018-07-11T07:23:26.051Z,16.61
2018-07-11T07:24:26.063Z,16.67
2018-07-11T07:25:25.951Z,16.63
2018-07-11T07:26:25.924Z,16.75
2018-07-11T07:27:25.936Z,16.76
2018-07-11T07:28:25.949Z,16.89
2018-07-11T07:29:25.954Z,16.96
2018-07-11T07:30:26.472Z,17.01
2018-07-11T07:31:25.779Z,17.11
2018-07-11T07:32:25.744Z,17.19
2018-07-11T07:33:25.782Z,17.12
2018-07-11T07:34:25.691Z,17.22
2018-07-11T07:35:25.668Z,17.22
2018-07-11T07:36:25.746Z,17.22
2018-07-11T07:37:25.650Z,17.07
2018-07-11T07:38:25.529Z,17.14
2018-07-11T07:39:25.581Z,17.22
2018-07-11T07:40:25.458Z,17.30
2018-07-11T07:41:25.447Z,17.40
2018-07-11T07:42:25.412Z,17.38
2018-07-11T07:43:25.385Z,17.51
2018-07-11T07:44:25.374Z,17.58
2018-07-11T07:45:25.318Z,17.64
2018-07-11T07:46:25.290Z,17.66
2018-07-11T07:47:25.331Z,17.66
2018-07-11T07:48:25.236Z,17.59
2018-07-11T07:49:25.202Z,17.44
2018-07-11T07:50:25.149Z,17.33
2018-07-11T07:51:25.214Z,17.28
2018-07-11T07:52:25.199Z,17.25
2018-07-11T07:53:25.105Z,17.37
2018-07-11T07:54:25.040Z,17.38
2018-07-11T07:55:24.983Z,17.54
2018-07-11T07:56:25.021Z,17.59
2018-07-11T07:57:24.908Z,17.55
2018-07-11T07:58:24.929Z,17.56
2018-07-11T07:59:24.832Z,17.78
2018-07-11T08:00:24.824Z,17.86
2018-07-11T08:01:24.782Z,17.86
2018-07-11T08:02:24.747Z,17.84
2018-07-11T08:03:24.718Z,17.99
2018-07-11T08:04:24.685Z,18.10
2018-07-11T08:05:24.644Z,18.10
2018-07-11T08:06:24.655Z,18.10
2018-07-11T08:07:24.666Z,17.93
2018-07-11T08:08:24.544Z,17.93
2018-07-11T08:09:24.509Z,17.78
2018-07-11T08:10:24.503Z,17.87
2018-07-11T08:11:24.459Z,17.77
2018-07-11T08:12:24.459Z,17.86
2018-07-11T08:13:24.400Z,17.87
2018-07-11T08:14:24.438Z,17.87
2018-07-11T08:15:24.404Z,18.02
2018-07-11T08:16:24.387Z,18.07
2018-07-11T08:17:24.283Z,18.17
2018-07-11T08:18:24.314Z,18.27
2018-07-11T08:19:24.222Z,18.30
2018-07-11T08:20:24.173Z,18.39
2018-07-11T08:21:24.186Z,18.44
2018-07-11T08:22:24.106Z,18.55
2018-07-11T08:23:24.056Z,18.60
2018-07-11T08:24:24.142Z,18.62
2018-07-11T08:25:23.994Z,18.72
2018-07-11T08:26:23.973Z,18.87
2018-07-11T08:27:24.020Z,18.78
2018-07-11T08:28:23.895Z,18.76
2018-07-11T08:29:23.857Z,18.84
2018-07-11T08:30:23.846Z,18.88
2018-07-11T08:31:23.807Z,18.78
2018-07-11T08:32:23.774Z,18.80
2018-07-11T08:33:23.745Z,18.76
2018-07-11T08:34:23.721Z,18.62
2018-07-11T08:35:23.693Z,18.51
2018-07-11T08:36:23.667Z,18.60
2018-07-11T08:37:23.612Z,18.50
2018-07-11T08:38:23.590Z,18.45
2018-07-11T08:39:23.549Z,18.57
2018-07-11T08:40:23.521Z,18.60
2018-07-11T08:41:23.483Z,18.84
2018-07-11T08:42:23.440Z,18.94
2018-07-11T08:43:23.431Z,19.07
2018-07-11T08:44:23.381Z,19.31
2018-07-11T08:45:23.370Z,19.22
2018-07-11T08:46:23.321Z,19.11
2018-07-11T08:47:23.286Z,18.94
2018-07-11T08:48:23.285Z,18.91
2018-07-11T08:49:23.232Z,19.04
2018-07-11T08:50:23.205Z,18.94
2018-07-11T08:51:23.162Z,19.07
2018-07-11T08:52:23.133Z,19.29
2018-07-11T08:53:23.104Z,19.29
2018-07-11T08:54:23.067Z,19.13
2018-07-11T08:55:23.058Z,19.00
2018-07-11T08:56:23.009Z,19.13
2018-07-11T08:57:22.983Z,19.07
2018-07-11T08:58:22.943Z,19.29
2018-07-11T08:59:22.921Z,19.13
2018-07-11T09:00:22.886Z,19.28
2018-07-11T09:01:22.875Z,19.61
2018-07-11T09:02:22.876Z,19.65
2018-07-11T09:03:22.793Z,19.50
2018-07-11T09:04:22.776Z,19.69
2018-07-11T09:05:22.728Z,19.47
2018-07-11T09:06:22.700Z,19.59
2018-07-11T09:07:22.668Z,19.63
2018-07-11T09:08:22.643Z,19.61
2018-07-11T09:09:22.606Z,19.62
2018-07-11T09:10:22.623Z,19.76
2018-07-11T09:11:22.571Z,19.62
2018-07-11T09:12:22.524Z,19.62
2018-07-11T09:13:22.554Z,19.62
2018-07-11T09:14:22.466Z,19.87
2018-07-11T09:15:22.420Z,20.11
2018-07-11T09:16:24.097Z,20.24
2018-07-11T09:17:22.361Z,20.36
2018-07-11T09:18:22.315Z,20.24
2018-07-11T09:19:22.308Z,20.11
2018-07-11T09:20:22.298Z,20.06
2018-07-11T09:21:22.246Z,20.41
2018-07-11T09:22:22.207Z,20.48
2018-07-11T09:23:22.166Z,20.39
2018-07-11T09:24:22.194Z,20.43
2018-07-11T09:25:22.102Z,20.42
2018-07-11T09:26:22.078Z,20.57
2018-07-11T09:27:22.047Z,20.67
2018-07-11T09:28:22.020Z,20.48
2018-07-11T09:29:21.985Z,20.29
2018-07-11T09:30:21.956Z,20.17
2018-07-11T09:31:21.936Z,20.02
2018-07-11T09:32:21.909Z,20.11
2018-07-11T09:33:21.884Z,20.18
2018-07-11T09:34:21.828Z,19.92
2018-07-11T09:35:21.807Z,19.95
2018-07-11T09:36:21.768Z,20.13
2018-07-11T09:37:21.748Z,19.95
2018-07-11T09:38:21.716Z,19.83
2018-07-11T09:39:21.672Z,19.63
2018-07-11T09:40:21.667Z,19.39
2018-07-11T09:41:21.622Z,19.65
2018-07-11T09:42:21.625Z,20.03
2018-07-11T09:43:21.556Z,20.35
2018-07-11T09:44:21.536Z,20.79
2018-07-11T09:45:21.555Z,20.88
2018-07-11T09:46:21.464Z,21.21
2018-07-11T09:47:21.437Z,21.50
2018-07-11T09:48:21.416Z,21.67
2018-07-11T09:49:21.385Z,21.68
2018-07-11T09:50:21.343Z,21.77
2018-07-11T09:51:21.329Z,21.82
2018-07-11T09:52:21.334Z,21.91
2018-07-11T09:53:21.276Z,22.09
2018-07-11T09:54:21.243Z,22.15
2018-07-11T09:55:21.198Z,22.09
2018-07-11T09:56:21.191Z,21.58
2018-07-11T09:57:21.149Z,21.44
2018-07-11T09:58:21.116Z,21.53
2018-07-11T09:59:21.112Z,21.43
2018-07-11T10:00:21.079Z,21.17
2018-07-11T10:01:21.039Z,21.38
2018-07-11T10:02:21.016Z,21.52
2018-07-11T10:03:20.988Z,21.68
2018-07-11T10:04:20.968Z,21.84
2018-07-11T10:05:20.944Z,21.74
2018-07-11T10:06:20.939Z,21.54
2018-07-11T10:07:20.891Z,21.80
2018-07-11T10:08:20.840Z,22.31
2018-07-11T10:09:20.801Z,22.43
2018-07-11T10:10:20.780Z,22.77
2018-07-11T10:11:20.752Z,22.88
2018-07-11T10:12:20.711Z,22.92
2018-07-11T10:13:20.702Z,22.76
2018-07-11T10:14:20.676Z,22.77
2018-07-11T10:15:20.629Z,22.62
2018-07-11T10:16:20.612Z,22.21
2018-07-11T10:17:20.578Z,22.03
2018-07-11T10:18:20.546Z,22.00
2018-07-11T10:19:20.520Z,22.12
2018-07-11T10:20:20.518Z,22.20
2018-07-11T10:21:20.455Z,22.24
2018-07-11T10:22:20.444Z,22.39
2018-07-11T10:23:20.436Z,22.36
2018-07-11T10:24:20.376Z,22.52
2018-07-11T10:25:20.354Z,22.67
2018-07-11T10:26:20.334Z,22.90
2018-07-11T10:27:20.287Z,22.76
2018-07-11T10:28:20.264Z,22.73
2018-07-11T10:29:20.230Z,22.17
2018-07-11T10:30:20.208Z,22.33
2018-07-11T10:31:20.194Z,22.37
2018-07-11T10:32:20.159Z,22.83
2018-07-11T10:33:20.123Z,22.94
2018-07-11T10:34:20.119Z,23.02
2018-07-11T10:35:20.074Z,23.10
2018-07-11T10:36:20.046Z,23.20
2018-07-11T10:37:20.035Z,23.15
2018-07-11T10:38:20.007Z,23.33
2018-07-11T10:39:19.986Z,23.09
2018-07-11T10:40:19.964Z,22.97
2018-07-11T10:41:19.933Z,22.76
2018-07-11T10:42:19.894Z,22.91
2018-07-11T10:43:19.852Z,23.40
2018-07-11T10:44:19.844Z,24.00
2018-07-11T10:45:19.805Z,24.78
2018-07-11T10:46:19.783Z,25.15
2018-07-11T10:47:19.764Z,25.54
2018-07-11T10:48:19.727Z,25.50
2018-07-11T10:49:19.696Z,25.54
2018-07-11T10:50:19.681Z,25.75
2018-07-11T10:51:19.672Z,25.67
2018-07-11T10:52:19.667Z,25.13
2018-07-11T10:53:19.605Z,25.20
2018-07-11T10:54:19.574Z,25.23
2018-07-11T10:55:19.556Z,24.85
2018-07-11T10:56:19.519Z,24.99
2018-07-11T10:57:19.501Z,24.85
2018-07-11T10:58:19.485Z,24.76
2018-07-11T10:59:19.452Z,24.69
2018-07-11T11:00:35.971Z,24.46
2018-07-11T11:01:19.550Z,23.88
2018-07-11T11:02:19.379Z,23.60
2018-07-11T11:03:19.382Z,23.60
2018-07-11T11:04:19.328Z,23.40
2018-07-11T11:05:19.315Z,23.55
2018-07-11T11:06:19.272Z,23.72
2018-07-11T11:07:19.259Z,24.13
2018-07-11T11:08:19.249Z,24.65
2018-07-11T11:09:19.206Z,24.39
2018-07-11T11:10:19.200Z,24.27
2018-07-11T11:11:19.173Z,24.46
2018-07-11T11:12:19.140Z,24.58
2018-07-11T11:13:19.137Z,24.60
2018-07-11T11:14:19.083Z,23.98
2018-07-11T11:15:19.057Z,23.46
2018-07-11T11:16:19.076Z,23.27
2018-07-11T11:17:19.006Z,23.23
2018-07-11T11:18:18.970Z,23.25
2018-07-11T11:19:18.986Z,23.40
2018-07-11T11:20:18.935Z,23.54
2018-07-11T11:21:18.906Z,23.36
2018-07-11T11:22:18.877Z,23.35
2018-07-11T11:23:18.877Z,23.02
2018-07-11T11:24:18.819Z,23.12
2018-07-11T11:25:18.794Z,22.43
2018-07-11T11:26:18.766Z,22.28
2018-07-11T11:27:18.740Z,22.37
2018-07-11T11:28:18.711Z,21.92
2018-07-11T11:29:18.718Z,21.86
2018-07-11T11:30:18.687Z,21.52
2018-07-11T11:31:18.658Z,21.50
2018-07-11T11:32:18.622Z,21.52
2018-07-11T11:33:18.591Z,21.52
2018-07-11T11:34:18.595Z,21.43
2018-07-11T11:35:18.546Z,21.29
2018-07-11T11:36:18.518Z,21.10
2018-07-11T11:37:18.495Z,20.87
2018-07-11T11:38:18.470Z,20.79
2018-07-11T11:39:18.457Z,20.57
2018-07-11T11:40:18.432Z,20.52
2018-07-11T11:41:18.377Z,20.29
2018-07-11T11:42:18.586Z,20.10
2018-07-11T11:43:18.360Z,20.16
2018-07-11T11:44:18.344Z,20.05
2018-07-11T11:45:18.284Z,19.94
2018-07-11T11:46:18.264Z,19.94
2018-07-11T11:47:18.222Z,19.96
2018-07-11T11:48:18.199Z,19.87
2018-07-11T11:49:18.181Z,19.88
2018-07-11T11:50:18.147Z,19.84
2018-07-11T11:51:18.119Z,19.78
2018-07-11T11:52:18.124Z,19.63
2018-07-11T11:53:18.062Z,19.62
2018-07-11T11:54:18.035Z,19.59
2018-07-11T11:55:18.013Z,19.59
2018-07-11T11:56:17.992Z,19.58
2018-07-11T11:57:17.935Z,19.71
2018-07-11T11:58:17.921Z,19.61
2018-07-11T11:59:17.912Z,19.61
2018-07-11T12:00:17.860Z,19.50
2018-07-11T12:01:17.842Z,19.44
2018-07-11T12:02:17.792Z,19.47
2018-07-11T12:03:17.772Z,19.48
2018-07-11T12:04:17.725Z,19.46
2018-07-11T12:05:17.697Z,19.50
2018-07-11T12:06:17.678Z,19.33
2018-07-11T12:07:17.744Z,19.50
2018-07-11T12:08:17.622Z,19.46
2018-07-11T12:09:17.583Z,19.33
2018-07-11T12:10:17.569Z,19.26
2018-07-11T12:11:17.562Z,19.26
2018-07-11T12:12:17.494Z,19.31
2018-07-11T12:13:17.462Z,19.26
2018-07-11T12:14:17.460Z,19.21
2018-07-11T12:15:17.425Z,19.00
2018-07-11T12:16:17.368Z,18.99
2018-07-11T12:17:17.339Z,18.88
2018-07-11T12:18:17.305Z,18.85
2018-07-11T12:19:17.311Z,18.70
2018-07-11T12:20:17.255Z,18.72
2018-07-11T12:21:17.310Z,18.63
2018-07-11T12:22:17.188Z,18.63
2018-07-11T12:23:17.161Z,18.62
2018-07-11T12:24:17.132Z,18.78
2018-07-11T12:25:17.106Z,18.70
2018-07-11T12:26:17.084Z,18.70
2018-07-11T12:27:17.053Z,18.72
2018-07-11T12:28:17.010Z,18.58
2018-07-11T12:29:16.975Z,18.62
2018-07-11T12:30:16.950Z,18.72
2018-07-11T12:31:16.905Z,18.62
2018-07-11T12:32:16.870Z,18.52
2018-07-11T12:33:16.885Z,18.52
2018-07-11T12:34:16.824Z,18.57
2018-07-11T12:35:16.786Z,18.51
2018-07-11T12:36:16.821Z,18.63
2018-07-11T12:37:16.721Z,18.63
2018-07-11T12:38:16.696Z,18.66
2018-07-11T12:39:16.693Z,18.70
2018-07-11T12:40:16.628Z,18.98
2018-07-11T12:41:16.628Z,19.22
2018-07-11T12:42:16.576Z,19.23
2018-07-11T12:43:16.565Z,19.13
2018-07-11T12:44:16.528Z,19.08
2018-07-11T12:45:16.481Z,19.16
2018-07-11T12:46:16.451Z,19.33
2018-07-11T12:47:16.429Z,19.59
2018-07-11T12:48:16.386Z,19.80
2018-07-11T12:49:16.366Z,19.95
2018-07-11T12:50:16.334Z,19.92
2018-07-11T12:51:16.295Z,20.02
2018-07-11T12:52:16.253Z,20.18